createdAt,value
2019-03-11T00:01:41.812Z,1.87
2019-03-11T00:04:10.660Z,0.90
2019-03-11T00:06:39.136Z,1.00
2019-03-11T00:09:07.103Z,2.22
2019-03-11T00:11:35.061Z,1.17
2019-03-11T00:14:03.027Z,0.53
2019-03-11T00:16:31.003Z,2.58
2019-03-11T00:18:58.968Z,1.52
2019-03-11T00:21:26.933Z,1.47
2019-03-11T00:23:54.901Z,1.07
2019-03-11T00:26:22.860Z,1.82
2019-03-11T00:28:50.833Z,1.22
2019-03-11T00:31:18.808Z,0.95
2019-03-11T00:33:46.767Z,0.40
2019-03-11T00:36:14.740Z,0.88
2019-03-11T00:38:42.704Z,2.05
2019-03-11T00:41:10.667Z,1.87
2019-03-11T00:43:38.643Z,0.93
2019-03-11T00:46:06.612Z,3.10
2019-03-11T00:48:34.577Z,2.00
2019-03-11T00:51:02.550Z,1.00
2019-03-11T00:53:30.519Z,1.10
2019-03-11T00:55:58.487Z,0.90
2019-03-11T00:58:26.461Z,0.53
2019-03-11T01:00:54.425Z,1.25
2019-03-11T01:03:22.409Z,0.82
2019-03-11T01:05:50.360Z,0.78
2019-03-11T01:08:18.346Z,1.07
2019-03-11T01:10:46.309Z,0.65
2019-03-11T01:13:14.298Z,2.02
2019-03-11T01:15:42.259Z,1.15
2019-03-11T01:18:10.228Z,0.62
2019-03-11T01:20:38.199Z,1.17
2019-03-11T01:23:06.169Z,0.82
2019-03-11T01:25:34.132Z,1.95
2019-03-11T01:28:02.204Z,0.95
2019-03-11T01:30:30.185Z,1.17
2019-03-11T01:32:58.151Z,0.78
2019-03-11T01:35:26.111Z,0.82
2019-03-11T01:37:54.076Z,1.47
2019-03-11T01:40:22.120Z,1.22
2019-03-11T01:42:51.721Z,1.12
2019-03-11T01:45:19.787Z,1.02
2019-03-11T01:47:47.785Z,0.90
2019-03-11T01:50:15.819Z,0.88
2019-03-11T01:52:43.796Z,0.85
2019-03-11T01:55:12.224Z,0.60
2019-03-11T01:57:40.185Z,0.72
2019-03-11T02:00:12.131Z,1.65
2019-03-11T02:02:40.088Z,0.78
2019-03-11T02:05:08.061Z,2.40
2019-03-11T02:07:36.032Z,0.88
2019-03-11T02:10:05.569Z,0.85
2019-03-11T02:12:33.543Z,3.83
2019-03-11T02:15:01.523Z,0.98
2019-03-11T02:17:29.495Z,1.12
2019-03-11T02:19:57.463Z,1.40
2019-03-11T02:22:25.436Z,1.77
2019-03-11T02:24:53.411Z,1.82
2019-03-11T02:27:21.436Z,2.12
2019-03-11T02:29:49.403Z,2.37
2019-03-11T02:32:17.372Z,0.95
2019-03-11T02:34:45.358Z,1.42
2019-03-11T02:37:13.324Z,2.33
2019-03-11T02:39:41.296Z,1.05
2019-03-11T02:42:09.313Z,2.95
2019-03-11T02:44:37.267Z,2.87
2019-03-11T02:47:05.237Z,1.92
2019-03-11T02:49:33.196Z,2.02
2019-03-11T02:52:01.181Z,1.20
2019-03-11T02:54:29.198Z,2.22
2019-03-11T02:56:57.151Z,1.20
2019-03-11T02:59:25.128Z,1.20
2019-03-11T03:02:04.156Z,1.20
2019-03-11T03:04:33.761Z,1.45
2019-03-11T03:07:01.810Z,2.37
2019-03-11T03:09:31.821Z,0.78
2019-03-11T03:11:59.466Z,0.70
2019-03-11T03:14:27.432Z,1.22
2019-03-11T03:16:55.396Z,1.37
2019-03-11T03:19:23.376Z,1.12
2019-03-11T03:21:51.344Z,1.35
2019-03-11T03:24:19.340Z,1.42
2019-03-11T03:26:47.293Z,1.02
2019-03-11T03:29:15.281Z,1.87
2019-03-11T03:31:43.257Z,1.07
2019-03-11T03:34:11.264Z,1.75
2019-03-11T03:36:39.217Z,2.00
2019-03-11T03:39:07.170Z,1.52
2019-03-11T03:41:35.145Z,1.40
2019-03-11T03:44:03.106Z,1.50
2019-03-11T03:46:31.123Z,1.45
2019-03-11T03:48:59.125Z,1.10
2019-03-11T03:51:27.094Z,1.75
2019-03-11T03:53:55.178Z,1.10
2019-03-11T03:56:23.208Z,1.72
2019-03-11T03:58:51.171Z,1.07
2019-03-11T04:01:19.136Z,1.37
2019-03-11T04:03:47.107Z,1.85
2019-03-11T04:06:15.071Z,1.65
2019-03-11T04:08:43.038Z,0.70
2019-03-11T04:11:11.004Z,1.57
2019-03-11T04:13:38.967Z,1.27
2019-03-11T04:16:06.956Z,1.50
2019-03-11T04:18:47.950Z,3.47
2019-03-11T04:21:15.920Z,1.42
2019-03-11T04:23:43.881Z,1.37
2019-03-11T04:26:11.868Z,0.98
2019-03-11T04:28:39.843Z,1.07
2019-03-11T04:31:07.796Z,2.02
2019-03-11T04:33:35.780Z,0.98
2019-03-11T04:36:03.740Z,0.93
2019-03-11T04:38:31.708Z,0.75
2019-03-11T04:40:59.684Z,0.80
2019-03-11T04:43:27.656Z,0.68
2019-03-11T04:45:55.635Z,3.45
2019-03-11T04:48:23.596Z,3.65
2019-03-11T04:50:51.576Z,1.50
2019-03-11T04:53:19.554Z,2.47
2019-03-11T04:55:47.544Z,5.92
2019-03-11T04:58:15.496Z,3.62
2019-03-11T05:00:43.471Z,2.75
2019-03-11T05:03:11.443Z,2.77
2019-03-11T05:05:39.407Z,1.80
2019-03-11T05:08:07.406Z,3.55
2019-03-11T05:10:35.367Z,1.22
2019-03-11T05:13:03.327Z,1.92
2019-03-11T05:15:31.303Z,4.80
2019-03-11T05:17:59.482Z,7.55
2019-03-11T05:20:27.401Z,2.85
2019-03-11T05:22:55.374Z,1.87
2019-03-11T05:25:23.335Z,1.67
2019-03-11T05:27:51.312Z,0.68
2019-03-11T05:30:19.680Z,2.20
2019-03-11T05:32:47.649Z,1.35
2019-03-11T05:35:15.618Z,2.33
2019-03-11T05:37:43.586Z,2.00
2019-03-11T05:40:13.228Z,2.37
2019-03-11T05:42:41.183Z,2.35
2019-03-11T05:45:10.413Z,1.47
2019-03-11T05:47:38.386Z,2.10
2019-03-11T05:50:08.025Z,1.12
2019-03-11T05:52:36.030Z,1.17
2019-03-11T05:55:04.191Z,1.37
2019-03-11T05:57:32.159Z,1.75
2019-03-11T06:00:00.148Z,1.40
2019-03-11T06:02:29.334Z,1.90
2019-03-11T06:04:57.252Z,0.90
2019-03-11T06:07:25.231Z,1.87
2019-03-11T06:09:53.208Z,2.12
2019-03-11T06:12:21.171Z,0.90
2019-03-11T06:14:49.152Z,3.02
2019-03-11T06:17:17.120Z,0.95
2019-03-11T06:19:45.481Z,0.98
2019-03-11T06:22:15.112Z,1.45
2019-03-11T06:24:43.080Z,0.68
2019-03-11T06:27:11.047Z,2.05
2019-03-11T06:29:39.026Z,1.62
2019-03-11T06:32:06.999Z,0.50
2019-03-11T06:34:34.967Z,0.80
2019-03-11T06:37:02.948Z,1.27
2019-03-11T06:39:30.946Z,4.25
2019-03-11T06:41:58.912Z,1.30
2019-03-11T06:44:26.884Z,0.70
2019-03-11T06:46:54.850Z,0.95
2019-03-11T06:49:22.819Z,1.37
2019-03-11T06:51:50.792Z,0.65
2019-03-11T06:54:18.772Z,1.95
2019-03-11T06:56:46.742Z,1.20
2019-03-11T06:59:14.701Z,1.05
2019-03-11T07:01:42.691Z,0.70
2019-03-11T07:04:10.652Z,1.20
2019-03-11T07:06:38.624Z,1.32
2019-03-11T07:09:07.340Z,0.40
2019-03-11T07:11:35.291Z,1.27
2019-03-11T07:14:03.272Z,0.60
2019-03-11T07:16:31.238Z,1.27
2019-03-11T07:18:59.196Z,0.30
2019-03-11T07:21:27.174Z,1.25
2019-03-11T07:23:55.142Z,1.60
2019-03-11T07:26:23.137Z,2.40
2019-03-11T07:28:51.084Z,0.55
2019-03-11T07:31:19.052Z,0.90
2019-03-11T07:33:47.012Z,0.85
2019-03-11T07:36:14.983Z,0.70
2019-03-11T07:38:42.952Z,1.02
2019-03-11T07:41:10.926Z,0.53
2019-03-11T07:43:38.889Z,0.65
2019-03-11T07:46:06.878Z,0.72
2019-03-11T07:48:34.836Z,0.85
2019-03-11T07:51:02.795Z,0.90
2019-03-11T07:53:30.787Z,2.08
2019-03-11T07:55:58.743Z,0.65
2019-03-11T07:58:26.720Z,1.70
2019-03-11T08:00:54.819Z,1.17
2019-03-11T08:03:22.782Z,0.40
2019-03-11T08:05:50.748Z,0.40
2019-03-11T08:08:18.715Z,0.65
2019-03-11T08:10:46.692Z,1.22
2019-03-11T08:13:14.665Z,0.72
2019-03-11T08:15:42.631Z,0.80
2019-03-11T08:18:10.961Z,0.57
2019-03-11T08:20:39.141Z,0.33
2019-03-11T08:23:07.115Z,1.30
2019-03-11T08:25:35.072Z,0.82
2019-03-11T08:28:03.057Z,1.22
2019-03-11T08:30:31.027Z,0.98
2019-03-11T08:32:58.996Z,1.12
2019-03-11T08:35:26.978Z,0.30
2019-03-11T08:37:54.935Z,1.55
2019-03-11T08:40:22.894Z,0.62
2019-03-11T08:42:50.867Z,1.02
2019-03-11T08:45:19.104Z,0.65
2019-03-11T08:47:47.064Z,1.75
2019-03-11T08:50:15.405Z,0.62
2019-03-11T08:52:43.365Z,1.35
2019-03-11T08:55:11.364Z,1.27
2019-03-11T08:57:41.278Z,1.25
2019-03-11T09:00:10.657Z,0.28
2019-03-11T09:02:38.619Z,0.20
2019-03-11T09:05:08.067Z,1.10
2019-03-11T09:07:36.036Z,0.45
2019-03-11T09:10:05.868Z,1.22
2019-03-11T09:12:33.845Z,1.07
2019-03-11T09:15:01.819Z,0.90
2019-03-11T09:17:29.825Z,1.45
2019-03-11T09:19:57.852Z,0.55
2019-03-11T09:22:25.897Z,0.50
2019-03-11T09:24:53.868Z,0.62
2019-03-11T09:27:21.839Z,1.05
2019-03-11T09:29:49.804Z,0.30
2019-03-11T09:32:19.406Z,0.90
2019-03-11T09:34:47.623Z,0.90
2019-03-11T09:37:15.587Z,1.05
2019-03-11T09:39:43.553Z,0.50
2019-03-11T09:42:11.554Z,0.75
2019-03-11T09:44:39.511Z,0.40
2019-03-11T09:47:07.480Z,0.72
2019-03-11T09:49:35.472Z,2.47
2019-03-11T09:52:03.420Z,0.80
2019-03-11T09:54:31.395Z,0.20
2019-03-11T09:56:59.356Z,0.50
2019-03-11T09:59:27.357Z,0.98
2019-03-11T10:01:55.330Z,0.90
2019-03-11T10:04:23.307Z,0.85
2019-03-11T10:06:51.288Z,0.82
2019-03-11T10:09:19.257Z,1.10
2019-03-11T10:11:47.228Z,0.93
2019-03-11T10:14:15.191Z,0.30
2019-03-11T10:16:43.161Z,1.25
2019-03-11T10:19:11.132Z,0.60
2019-03-11T10:21:39.106Z,1.05
2019-03-11T10:24:07.069Z,0.68
2019-03-11T10:26:35.110Z,1.27
2019-03-11T10:29:03.057Z,0.62
2019-03-11T10:31:30.999Z,1.15
2019-03-11T10:33:59.013Z,1.60
2019-03-11T10:36:26.983Z,1.00
2019-03-11T10:38:54.944Z,0.40
2019-03-11T10:41:22.944Z,0.82
2019-03-11T10:43:50.888Z,0.98
2019-03-11T10:46:18.853Z,0.47
2019-03-11T10:48:46.815Z,1.20
2019-03-11T10:51:14.780Z,0.82
2019-03-11T10:53:42.747Z,1.00
2019-03-11T10:56:10.709Z,2.00
2019-03-11T10:58:38.689Z,1.37
2019-03-11T11:01:06.668Z,0.55
2019-03-11T11:03:34.658Z,0.78
2019-03-11T11:06:02.628Z,0.53
2019-03-11T11:08:30.587Z,0.55
2019-03-11T11:10:58.562Z,0.50
2019-03-11T11:13:26.565Z,0.65
2019-03-11T11:15:54.528Z,1.12
2019-03-11T11:18:22.501Z,1.05
2019-03-11T11:20:50.472Z,1.42
2019-03-11T11:23:18.432Z,1.35
2019-03-11T11:25:46.418Z,0.75
2019-03-11T11:28:14.367Z,0.33
2019-03-11T11:30:42.344Z,0.55
2019-03-11T11:33:10.312Z,1.22
2019-03-11T11:35:38.289Z,0.60
2019-03-11T11:38:06.273Z,0.75
2019-03-11T11:40:34.234Z,1.02
2019-03-11T11:43:02.213Z,1.12
2019-03-11T11:45:30.950Z,1.42
2019-03-11T11:47:58.920Z,0.70
2019-03-11T11:50:27.187Z,1.07
2019-03-11T11:52:55.171Z,1.05
2019-03-11T11:55:23.127Z,0.55
2019-03-11T11:57:51.102Z,0.40
2019-03-11T12:00:27.168Z,0.60
2019-03-11T12:02:55.147Z,1.02
2019-03-11T12:05:23.103Z,0.78
2019-03-11T12:07:51.097Z,0.50
2019-03-11T12:10:23.820Z,0.50
2019-03-11T12:12:51.785Z,0.47
2019-03-11T12:15:19.754Z,0.90
2019-03-11T12:17:47.735Z,0.70
2019-03-11T12:20:16.596Z,0.40
2019-03-11T12:22:44.559Z,0.53
2019-03-11T12:25:13.795Z,0.68
2019-03-11T12:27:52.754Z,0.30
2019-03-11T12:30:16.055Z,0.60
2019-03-11T12:32:44.022Z,1.62
2019-03-11T12:35:12.143Z,1.75
2019-03-11T12:37:40.135Z,1.02
2019-03-11T12:40:12.647Z,1.22
2019-03-11T12:42:40.620Z,0.62
2019-03-11T12:45:09.759Z,0.50
2019-03-11T12:47:37.747Z,1.20
2019-03-11T12:50:07.335Z,1.17
2019-03-11T12:52:35.296Z,0.62
2019-03-11T12:55:03.351Z,1.10
2019-03-11T12:57:31.316Z,1.05
2019-03-11T13:00:01.375Z,0.68
2019-03-11T13:02:29.293Z,0.72
2019-03-11T13:04:57.273Z,1.47
2019-03-11T13:07:25.273Z,1.50
2019-03-11T13:09:53.245Z,0.95
2019-03-11T13:12:21.205Z,0.80
2019-03-11T13:14:49.172Z,0.57
2019-03-11T13:17:17.188Z,0.50
2019-03-11T13:19:45.192Z,1.00
2019-03-11T13:22:13.185Z,0.85
2019-03-11T13:24:41.156Z,0.65
2019-03-11T13:27:09.131Z,0.47
2019-03-11T13:29:37.121Z,1.40
2019-03-11T13:32:05.073Z,1.07
2019-03-11T13:34:33.037Z,0.47
2019-03-11T13:37:01.042Z,0.70
2019-03-11T13:39:29.069Z,0.70
2019-03-11T13:41:57.052Z,0.93
2019-03-11T13:44:25.019Z,1.22
2019-03-11T13:46:52.992Z,0.37
2019-03-11T13:49:20.970Z,0.72
2019-03-11T13:51:48.931Z,0.88
2019-03-11T13:54:16.910Z,1.00
2019-03-11T13:56:44.873Z,0.40
2019-03-11T13:59:12.849Z,0.65
2019-03-11T14:01:40.808Z,1.02
2019-03-11T14:04:08.784Z,0.80
2019-03-11T14:06:36.748Z,1.82
2019-03-11T14:09:04.976Z,2.00
2019-03-11T14:11:32.948Z,1.57
2019-03-11T14:14:00.922Z,1.00
2019-03-11T14:16:28.916Z,0.42
2019-03-11T14:18:56.876Z,1.00
2019-03-11T14:21:26.077Z,0.70
2019-03-11T14:23:54.303Z,1.40
2019-03-11T14:26:22.284Z,2.00
2019-03-11T14:28:50.244Z,0.78
2019-03-11T14:31:18.235Z,0.82
2019-03-11T14:33:46.195Z,0.85
2019-03-11T14:36:14.156Z,1.07
2019-03-11T14:38:42.147Z,0.80
2019-03-11T14:41:12.916Z,2.35
2019-03-11T14:43:40.879Z,1.00
2019-03-11T14:46:08.844Z,1.87
2019-03-11T14:48:36.810Z,0.82
2019-03-11T14:51:04.791Z,0.82
2019-03-11T14:53:32.771Z,0.62
2019-03-11T14:56:00.735Z,0.95
2019-03-11T14:58:29.605Z,0.80
2019-03-11T15:00:57.952Z,1.90
2019-03-11T15:03:25.920Z,0.75
2019-03-11T15:05:54.700Z,0.70
2019-03-11T15:08:22.836Z,1.25
2019-03-11T15:10:50.799Z,1.45
2019-03-11T15:13:18.769Z,0.98
2019-03-11T15:15:46.745Z,0.80
2019-03-11T15:18:14.732Z,1.47
2019-03-11T15:20:42.693Z,1.32
2019-03-11T15:23:20.043Z,1.37
2019-03-11T15:25:40.357Z,1.00
2019-03-11T15:28:08.320Z,1.00
2019-03-11T15:30:36.303Z,1.05
2019-03-11T15:33:04.284Z,1.40
2019-03-11T15:35:32.251Z,1.30
2019-03-11T15:38:00.257Z,1.60
2019-03-11T15:40:28.246Z,1.10
2019-03-11T15:42:56.197Z,0.75
2019-03-11T15:45:24.177Z,1.80
2019-03-11T15:47:52.148Z,1.17
2019-03-11T15:50:24.535Z,2.25
2019-03-11T15:52:52.497Z,1.77
2019-03-11T15:55:20.466Z,1.10
2019-03-11T15:57:48.450Z,1.27
2019-03-11T16:00:18.030Z,1.30
2019-03-11T16:02:46.010Z,0.70
2019-03-11T16:05:14.132Z,2.10
2019-03-11T16:07:42.117Z,0.98
2019-03-11T16:10:16.664Z,1.05
2019-03-11T16:12:41.043Z,1.85
2019-03-11T16:15:10.295Z,1.37
2019-03-11T16:17:38.260Z,2.85
2019-03-11T16:20:07.849Z,2.37
2019-03-11T16:22:35.828Z,1.47
2019-03-11T16:25:04.860Z,2.22
2019-03-11T16:27:32.834Z,1.37
2019-03-11T16:30:00.792Z,1.00
2019-03-11T16:32:28.833Z,1.02
2019-03-11T16:34:56.804Z,1.47
2019-03-11T16:37:24.769Z,1.55
2019-03-11T16:39:52.753Z,0.62
2019-03-11T16:42:20.728Z,2.80
2019-03-11T16:44:48.708Z,0.75
2019-03-11T16:47:16.677Z,1.20
2019-03-11T16:49:44.639Z,1.60
2019-03-11T16:52:12.635Z,26.45
2019-03-11T16:54:40.620Z,13.60
2019-03-11T16:57:08.589Z,8.50
2019-03-11T16:59:36.551Z,5.22
2019-03-11T17:02:04.706Z,11.08
2019-03-11T17:04:33.840Z,3.33
2019-03-11T17:07:01.847Z,2.55
2019-03-11T17:09:29.802Z,3.90
2019-03-11T17:11:57.775Z,4.78
2019-03-11T17:14:25.755Z,3.08
2019-03-11T17:16:53.875Z,6.08
2019-03-11T17:19:21.925Z,5.75
2019-03-11T17:21:49.891Z,4.28
2019-03-11T17:24:18.538Z,5.08
2019-03-11T17:26:46.570Z,4.05
2019-03-11T17:29:14.567Z,10.13
2019-03-11T17:31:42.571Z,3.37
2019-03-11T17:34:10.533Z,2.92
2019-03-11T17:36:38.499Z,2.45
2019-03-11T17:39:06.561Z,9.48
2019-03-11T17:41:34.535Z,4.05
2019-03-11T17:44:02.559Z,6.22
2019-03-11T17:46:30.593Z,4.87
2019-03-11T17:48:58.544Z,6.70
2019-03-11T17:51:26.512Z,4.30
2019-03-11T17:53:54.490Z,13.38
2019-03-11T17:56:22.452Z,12.98
2019-03-11T17:58:50.429Z,5.67
2019-03-11T18:01:18.411Z,4.20
2019-03-11T18:03:46.372Z,5.10
2019-03-11T18:06:14.335Z,5.60
2019-03-11T18:08:42.311Z,3.75
2019-03-11T18:11:10.300Z,3.62
2019-03-11T18:13:38.244Z,4.67
2019-03-11T18:16:06.210Z,7.83
2019-03-11T18:18:34.172Z,2.15
2019-03-11T18:21:02.150Z,5.53
2019-03-11T18:23:30.111Z,6.22
2019-03-11T18:25:58.106Z,5.33
2019-03-11T18:28:26.055Z,6.47
2019-03-11T18:30:54.048Z,4.62
2019-03-11T18:33:22.016Z,4.67
2019-03-11T18:35:50.116Z,5.45
2019-03-11T18:38:18.136Z,8.65
2019-03-11T18:40:46.168Z,5.53
2019-03-11T18:43:20.539Z,3.75
2019-03-11T18:45:43.891Z,3.75
2019-03-11T18:48:11.876Z,5.30
2019-03-11T18:50:39.825Z,3.90
2019-03-11T18:53:07.839Z,4.65
2019-03-11T18:55:36.000Z,3.45
2019-03-11T18:58:03.987Z,4.67
2019-03-11T19:00:32.003Z,4.17
2019-03-11T19:02:59.971Z,4.25
2019-03-11T19:05:27.931Z,4.08
2019-03-11T19:07:55.927Z,9.28
2019-03-11T19:10:23.859Z,5.83
2019-03-11T19:12:51.832Z,3.02
2019-03-11T19:15:20.424Z,4.20
2019-03-11T19:17:48.456Z,2.83
2019-03-11T19:20:19.656Z,3.70
2019-03-11T19:22:47.677Z,3.35
2019-03-11T19:25:15.986Z,3.65
2019-03-11T19:27:44.296Z,3.98
2019-03-11T19:30:16.216Z,3.12
2019-03-11T19:32:44.199Z,3.95
2019-03-11T19:35:12.184Z,7.67
2019-03-11T19:37:40.196Z,3.17
2019-03-11T19:40:09.623Z,4.53
2019-03-11T19:42:37.605Z,7.97
2019-03-11T19:45:09.720Z,4.75
2019-03-11T19:47:37.784Z,4.70
2019-03-11T19:50:07.707Z,7.70
2019-03-11T19:52:35.755Z,7.92
2019-03-11T19:55:04.332Z,5.62
2019-03-11T19:57:32.407Z,6.85
2019-03-11T20:00:01.616Z,3.27
2019-03-11T20:09:58.610Z,9.73
2019-03-11T20:12:26.629Z,3.40
2019-03-11T20:14:54.846Z,2.70
2019-03-11T20:17:22.952Z,6.53
2019-03-11T20:19:50.945Z,3.00
2019-03-11T20:22:19.029Z,3.47
2019-03-11T20:24:47.022Z,6.20
2019-03-11T20:27:15.000Z,6.20
2019-03-11T20:29:43.137Z,5.35
2019-03-11T20:32:11.193Z,2.70
2019-03-11T20:34:39.251Z,3.22
2019-03-11T20:37:07.241Z,3.45
2019-03-11T20:39:35.236Z,3.60
2019-03-11T20:42:03.367Z,4.50
2019-03-11T20:44:31.433Z,2.15
2019-03-11T20:46:59.684Z,3.75
2019-03-11T20:49:27.790Z,4.17
2019-03-11T20:51:55.783Z,4.12
2019-03-11T20:54:24.303Z,2.75
2019-03-11T20:56:52.356Z,5.53
2019-03-11T20:59:20.483Z,4.17
2019-03-11T21:01:48.645Z,2.83
2019-03-11T21:04:16.593Z,2.80
2019-03-11T21:06:44.622Z,4.60
2019-03-11T21:09:12.647Z,6.60
2019-03-11T21:11:40.827Z,3.85
2019-03-11T21:14:08.991Z,2.95
2019-03-11T21:16:37.067Z,3.47
2019-03-11T21:19:05.161Z,2.05
2019-03-11T21:21:33.324Z,1.50
2019-03-11T21:24:02.382Z,4.10
2019-03-11T21:26:30.551Z,1.15
2019-03-11T21:29:00.993Z,3.45
2019-03-11T21:31:28.393Z,3.77
2019-03-11T21:33:58.727Z,4.17
2019-03-11T21:36:26.116Z,6.62
2019-03-11T21:38:54.384Z,1.85
2019-03-11T21:41:22.587Z,9.68
2019-03-11T21:43:50.614Z,1.98
2019-03-11T21:46:18.643Z,3.30
2019-03-11T21:48:46.646Z,2.62
2019-03-11T21:51:14.633Z,2.87
2019-03-11T21:53:42.743Z,4.05
2019-03-11T21:56:10.822Z,6.72
2019-03-11T21:58:38.882Z,4.17
2019-03-11T22:01:06.977Z,4.03
2019-03-11T22:03:35.036Z,5.70
2019-03-11T22:06:03.085Z,5.97
2019-03-11T22:08:31.193Z,6.03
2019-03-11T22:10:59.141Z,6.35
2019-03-11T22:13:27.115Z,4.78
2019-03-11T22:15:55.109Z,4.75
2019-03-11T22:18:23.085Z,4.87
2019-03-11T22:20:51.157Z,4.28
2019-03-11T22:23:19.167Z,3.25
2019-03-11T22:25:47.134Z,2.30
2019-03-11T22:28:15.091Z,4.03
2019-03-11T22:30:43.112Z,3.87
2019-03-11T22:33:11.115Z,2.85
2019-03-11T22:35:39.072Z,2.98
2019-03-11T22:38:07.051Z,2.65
2019-03-11T22:40:35.004Z,3.67
2019-03-11T22:43:02.976Z,1.72
2019-03-11T22:45:30.976Z,2.35
2019-03-11T22:47:58.920Z,2.00
2019-03-11T22:50:26.883Z,3.67
2019-03-11T22:52:54.852Z,4.33
2019-03-11T22:55:22.812Z,6.47
2019-03-11T22:57:50.784Z,1.95
2019-03-11T23:00:46.281Z,2.60
2019-03-11T23:03:14.327Z,2.37
2019-03-11T23:05:57.154Z,2.27
2019-03-11T23:08:11.984Z,1.62
2019-03-11T23:10:39.952Z,4.20
2019-03-11T23:13:07.936Z,3.47
2019-03-11T23:15:35.913Z,3.47
2019-03-11T23:18:03.862Z,3.17
2019-03-11T23:20:31.845Z,2.25
2019-03-11T23:22:59.802Z,2.25
2019-03-11T23:25:27.778Z,2.05
2019-03-11T23:27:56.060Z,3.17
2019-03-11T23:30:24.036Z,2.33
2019-03-11T23:32:52.012Z,1.98
2019-03-11T23:35:19.996Z,2.90
2019-03-11T23:37:47.951Z,2.02
2019-03-11T23:40:15.908Z,2.37
2019-03-11T23:42:43.943Z,2.08
2019-03-11T23:45:11.901Z,1.57
2019-03-11T23:47:39.867Z,1.55
2019-03-11T23:50:14.111Z,2.22
2019-03-11T23:52:42.084Z,1.07
2019-03-11T23:55:10.416Z,1.98
2019-03-11T23:57:38.387Z,2.08
